createdAt,value
2023-03-22T00:00:07.100Z,5.18
2023-03-22T00:02:39.751Z,4.78
2023-03-22T00:05:12.410Z,5.35
2023-03-22T00:07:45.053Z,5.28
2023-03-22T00:10:19.014Z,6.07
2023-03-22T00:12:51.730Z,4.77
2023-03-22T00:15:24.607Z,5.70
2023-03-22T00:17:57.448Z,5.85
2023-03-22T00:20:31.182Z,5.82
2023-03-22T00:23:03.880Z,5.22
2023-03-22T00:25:37.888Z,5.25
2023-03-22T00:28:10.785Z,5.80
2023-03-22T00:30:43.789Z,6.25
2023-03-22T00:33:16.457Z,4.85
2023-03-22T00:35:49.932Z,5.90
2023-03-22T00:38:32.546Z,5.10
2023-03-22T00:41:14.396Z,5.50
2023-03-22T00:46:20.854Z,5.88
2023-03-22T00:48:53.527Z,5.23
2023-03-22T00:51:26.852Z,6.07
2023-03-22T00:53:59.485Z,6.00
2023-03-22T00:56:33.956Z,5.13
2023-03-22T00:59:15.619Z,5.60
2023-03-22T01:01:48.941Z,6.30
2023-03-22T01:04:25.769Z,6.00
2023-03-22T01:07:02.061Z,5.22
2023-03-22T01:09:35.054Z,5.97
2023-03-22T01:12:15.517Z,6.43
2023-03-22T01:14:48.410Z,6.30
2023-03-22T01:17:21.898Z,6.07
2023-03-22T01:19:54.640Z,5.88
2023-03-22T01:22:27.513Z,6.90
2023-03-22T01:25:00.621Z,7.10
2023-03-22T01:27:34.686Z,6.43
2023-03-22T01:30:08.161Z,6.60
2023-03-22T01:32:40.853Z,7.18
2023-03-22T01:35:13.602Z,6.20
2023-03-22T01:37:48.066Z,7.20
2023-03-22T01:40:22.427Z,6.78
2023-03-22T01:42:57.050Z,6.22
2023-03-22T01:45:38.038Z,6.93
2023-03-22T01:48:13.341Z,5.50
2023-03-22T01:50:49.374Z,6.18
2023-03-22T01:53:23.537Z,6.20
2023-03-22T01:55:58.120Z,5.03
2023-03-22T01:58:37.879Z,6.90
2023-03-22T02:01:12.430Z,7.43
2023-03-22T02:03:55.911Z,6.85
2023-03-22T02:06:32.315Z,7.18
2023-03-22T02:09:12.914Z,5.95
2023-03-22T02:11:49.897Z,6.38
2023-03-22T02:14:36.868Z,7.15
2023-03-22T02:17:53.585Z,6.88
2023-03-22T02:20:52.893Z,6.22
2023-03-22T02:23:46.446Z,5.82
2023-03-22T02:26:34.001Z,5.95
2023-03-22T02:29:09.038Z,7.00
2023-03-22T02:31:56.751Z,6.38
2023-03-22T02:34:39.003Z,6.57
2023-03-22T02:37:24.750Z,6.53
2023-03-22T02:40:01.844Z,6.80
2023-03-22T02:42:41.523Z,7.32
2023-03-22T02:45:16.694Z,5.57
2023-03-22T02:47:54.292Z,6.70
2023-03-22T02:50:29.604Z,6.95
2023-03-22T02:53:04.180Z,6.75
2023-03-22T02:55:41.682Z,6.00
2023-03-22T02:58:17.030Z,7.00
2023-03-22T03:00:52.042Z,4.70
2023-03-22T03:03:27.011Z,6.73
2023-03-22T03:06:03.470Z,7.05
2023-03-22T03:08:37.453Z,6.35
2023-03-22T03:11:12.323Z,6.72
2023-03-22T03:13:47.589Z,7.85
2023-03-22T03:16:22.524Z,7.15
2023-03-22T03:18:59.338Z,6.70
2023-03-22T03:21:35.782Z,7.45
2023-03-22T03:24:15.235Z,5.85
2023-03-22T03:26:55.454Z,7.40
2023-03-22T03:29:32.277Z,5.65
2023-03-22T03:32:07.359Z,7.20
2023-03-22T03:34:49.377Z,6.88
2023-03-22T03:37:23.904Z,6.22
2023-03-22T03:39:57.944Z,6.30
2023-03-22T03:42:32.774Z,7.77
2023-03-22T03:47:38.511Z,7.10
2023-03-22T03:50:12.538Z,6.88
2023-03-22T03:52:45.138Z,7.20
2023-03-22T03:55:17.779Z,7.18
2023-03-22T03:57:51.755Z,7.53
2023-03-22T04:00:24.681Z,6.67
2023-03-22T04:03:16.364Z,7.35
2023-03-22T04:06:09.858Z,7.00
2023-03-22T04:08:45.882Z,5.82
2023-03-22T04:11:21.543Z,7.80
2023-03-22T04:13:59.433Z,5.78
2023-03-22T04:16:32.260Z,6.93
2023-03-22T04:19:04.889Z,6.95
2023-03-22T04:21:37.631Z,8.75
2023-03-22T04:24:10.773Z,6.30
2023-03-22T04:26:46.761Z,7.95
2023-03-22T04:29:36.158Z,6.80
2023-03-22T04:32:27.819Z,6.30
2023-03-22T04:35:01.961Z,7.22
2023-03-22T04:37:34.621Z,7.38
2023-03-22T04:40:31.444Z,7.15
2023-03-22T04:43:09.518Z,6.03
2023-03-22T04:46:09.841Z,5.57
2023-03-22T04:48:48.785Z,5.90
2023-03-22T04:51:22.827Z,6.63
2023-03-22T04:54:31.271Z,6.63
2023-03-22T04:57:04.669Z,6.28
2023-03-22T04:59:43.880Z,7.60
2023-03-22T05:02:17.903Z,7.20
2023-03-22T05:04:52.857Z,6.95
2023-03-22T05:07:39.097Z,7.55
2023-03-22T05:10:12.886Z,6.82
2023-03-22T05:12:46.739Z,6.05
2023-03-22T05:15:27.751Z,6.88
2023-03-22T05:18:02.694Z,5.82
2023-03-22T05:20:35.352Z,6.68
2023-03-22T05:23:22.243Z,5.65
2023-03-22T05:26:01.521Z,6.47
2023-03-22T05:28:34.223Z,4.55
2023-03-22T05:31:17.026Z,3.97
2023-03-22T05:33:56.367Z,5.75
2023-03-22T05:36:31.480Z,5.72
2023-03-22T05:39:24.334Z,5.72
2023-03-22T05:41:57.789Z,5.13
2023-03-22T05:44:30.722Z,4.18
2023-03-22T05:47:11.343Z,4.25
2023-03-22T05:49:52.853Z,5.07
2023-03-22T05:52:28.255Z,3.63
2023-03-22T05:55:24.029Z,3.95
2023-03-22T05:58:05.056Z,4.90
2023-03-22T06:00:43.086Z,5.00
2023-03-22T06:03:31.189Z,4.30
2023-03-22T06:06:13.700Z,4.88
2023-03-22T06:08:53.558Z,4.10
2023-03-22T06:11:26.313Z,4.10
2023-03-22T06:14:00.330Z,3.72
2023-03-22T06:16:40.897Z,4.30
2023-03-22T06:19:13.634Z,3.42
2023-03-22T06:21:47.729Z,4.57
2023-03-22T06:24:22.726Z,2.55
2023-03-22T06:26:55.832Z,3.83
2023-03-22T06:29:28.624Z,3.50
2023-03-22T06:32:04.426Z,3.70
2023-03-22T06:34:37.454Z,3.55
2023-03-22T06:37:12.368Z,2.80
2023-03-22T06:39:47.840Z,3.55
2023-03-22T06:42:20.800Z,4.25
2023-03-22T06:45:01.872Z,3.80
2023-03-22T06:47:38.664Z,3.30
2023-03-22T06:50:19.406Z,3.10
2023-03-22T06:53:22.864Z,4.57
2023-03-22T06:55:55.762Z,3.47
2023-03-22T06:58:30.420Z,1.92
2023-03-22T07:01:04.046Z,1.98
2023-03-22T07:03:38.215Z,3.42
2023-03-22T07:06:16.992Z,2.33
2023-03-22T07:08:55.794Z,2.85
2023-03-22T07:11:34.064Z,2.30
2023-03-22T07:14:08.566Z,3.28
2023-03-22T07:17:03.323Z,3.40
2023-03-22T07:19:37.079Z,3.22
2023-03-22T07:22:17.370Z,2.83
2023-03-22T07:24:57.229Z,2.60
2023-03-22T07:27:33.808Z,3.88
2023-03-22T07:30:09.646Z,2.88
2023-03-22T07:32:46.143Z,2.97
2023-03-22T07:35:20.103Z,3.22
2023-03-22T07:37:54.081Z,2.30
2023-03-22T07:40:33.789Z,2.97
2023-03-22T07:43:06.669Z,2.97
2023-03-22T07:45:44.054Z,2.67
2023-03-22T07:48:36.376Z,3.50
2023-03-22T07:51:31.587Z,2.47
2023-03-22T07:54:07.112Z,2.80
2023-03-22T07:56:42.577Z,2.50
2023-03-22T07:59:15.308Z,2.72
2023-03-22T08:01:48.315Z,2.53
2023-03-22T08:04:32.623Z,2.90
2023-03-22T08:07:19.429Z,3.22
2023-03-22T08:09:53.186Z,2.35
2023-03-22T08:12:28.645Z,3.38
2023-03-22T08:15:10.780Z,2.28
2023-03-22T08:17:43.852Z,2.22
2023-03-22T08:20:22.672Z,2.42
2023-03-22T08:23:00.027Z,1.65
2023-03-22T08:25:33.422Z,2.30
2023-03-22T08:28:15.737Z,2.13
2023-03-22T08:30:49.391Z,1.92
2023-03-22T08:33:23.687Z,2.50
2023-03-22T08:36:05.324Z,2.08
2023-03-22T08:38:38.993Z,2.40
2023-03-22T08:41:12.812Z,2.10
2023-03-22T08:43:52.713Z,3.03
2023-03-22T08:46:25.573Z,2.15
2023-03-22T08:49:00.458Z,2.13
2023-03-22T08:51:40.226Z,2.00
2023-03-22T08:54:23.351Z,2.08
2023-03-22T08:56:58.996Z,1.58
2023-03-22T09:00:00.450Z,1.30
2023-03-22T09:02:42.377Z,1.40
2023-03-22T09:05:15.098Z,1.35
2023-03-22T09:07:52.532Z,1.35
2023-03-22T09:10:40.638Z,1.50
2023-03-22T09:13:16.766Z,1.45
2023-03-22T09:15:57.340Z,1.73
2023-03-22T09:18:33.393Z,1.95
2023-03-22T09:21:09.952Z,1.50
2023-03-22T09:23:50.781Z,1.38
2023-03-22T09:26:28.021Z,1.75
2023-03-22T09:29:01.185Z,1.67
2023-03-22T09:31:36.028Z,1.85
2023-03-22T09:34:21.909Z,1.25
2023-03-22T09:36:57.391Z,1.30
2023-03-22T09:39:38.399Z,1.77
2023-03-22T09:42:18.586Z,1.48
2023-03-22T09:44:51.673Z,1.23
2023-03-22T09:47:43.878Z,1.60
2023-03-22T09:50:20.585Z,1.20
2023-03-22T09:52:53.674Z,1.52
2023-03-22T09:55:31.550Z,1.35
2023-03-22T09:58:08.175Z,1.42
2023-03-22T10:00:43.823Z,1.52
2023-03-22T10:03:26.002Z,1.33
2023-03-22T10:06:01.655Z,1.75
2023-03-22T10:08:37.600Z,1.58
2023-03-22T10:11:16.149Z,1.73
2023-03-22T10:13:53.941Z,1.80
2023-03-22T10:16:27.974Z,1.70
2023-03-22T10:19:06.114Z,2.25
2023-03-22T10:21:39.165Z,1.52
2023-03-22T10:24:15.041Z,1.63
2023-03-22T10:26:48.565Z,2.25
2023-03-22T10:29:23.988Z,1.77
2023-03-22T10:31:57.272Z,1.40
2023-03-22T10:34:32.544Z,2.03
2023-03-22T10:37:06.919Z,1.77
2023-03-22T10:39:41.647Z,1.58
2023-03-22T10:42:15.322Z,1.88
2023-03-22T10:44:49.625Z,3.00
2023-03-22T10:47:27.930Z,2.22
2023-03-22T10:50:03.745Z,1.77
2023-03-22T10:52:41.969Z,2.05
2023-03-22T10:55:16.793Z,1.80
2023-03-22T10:57:55.185Z,1.90
2023-03-22T11:00:28.778Z,1.80
2023-03-22T11:03:02.148Z,2.42
2023-03-22T11:05:36.430Z,2.08
2023-03-22T11:08:15.151Z,2.15
2023-03-22T11:10:50.983Z,2.30
2023-03-22T11:13:24.430Z,1.58
2023-03-22T11:16:01.301Z,1.77
2023-03-22T11:18:35.172Z,2.20
2023-03-22T11:21:12.604Z,1.63
2023-03-22T11:23:49.036Z,1.42
2023-03-22T11:26:27.101Z,2.13
2023-03-22T11:29:05.695Z,1.52
2023-03-22T11:31:49.637Z,1.90
2023-03-22T11:34:23.150Z,1.80
2023-03-22T11:36:57.729Z,1.40
2023-03-22T11:39:30.873Z,1.83
2023-03-22T11:42:04.129Z,1.83
2023-03-22T11:44:37.838Z,1.88
2023-03-22T11:47:13.389Z,1.27
2023-03-22T11:49:48.073Z,1.98
2023-03-22T11:52:23.935Z,2.47
2023-03-22T11:54:57.266Z,2.20
2023-03-22T11:57:32.112Z,1.80
2023-03-22T12:00:11.280Z,1.67
2023-03-22T12:02:46.032Z,2.90
2023-03-22T12:05:21.462Z,2.80
2023-03-22T12:07:59.713Z,2.65
2023-03-22T12:10:33.310Z,1.80
2023-03-22T12:13:08.100Z,1.63
2023-03-22T12:15:47.321Z,1.70
2023-03-22T12:18:23.786Z,1.90
2023-03-22T12:20:57.718Z,1.77
2023-03-22T12:23:32.670Z,1.55
2023-03-22T12:26:07.148Z,1.63
2023-03-22T12:28:42.437Z,1.35
2023-03-22T12:31:16.689Z,1.90
2023-03-22T12:33:50.364Z,4.82
2023-03-22T12:36:28.064Z,1.92
2023-03-22T12:39:03.574Z,3.03
2023-03-22T12:41:37.371Z,1.83
2023-03-22T12:44:12.801Z,1.38
2023-03-22T12:46:49.120Z,1.38
2023-03-22T12:49:24.355Z,1.85
2023-03-22T12:52:02.384Z,1.50
2023-03-22T12:54:36.840Z,1.95
2023-03-22T12:57:09.671Z,1.40
2023-03-22T12:59:43.355Z,1.60
2023-03-22T13:02:17.725Z,1.50
2023-03-22T13:04:52.297Z,1.50
2023-03-22T13:07:51.385Z,1.88
2023-03-22T13:10:50.838Z,1.50
2023-03-22T13:13:50.380Z,1.27
2023-03-22T13:16:24.474Z,1.35
2023-03-22T13:18:58.982Z,1.40
2023-03-22T13:21:33.320Z,1.02
2023-03-22T13:24:22.532Z,1.60
2023-03-22T13:26:59.812Z,1.40
2023-03-22T13:29:36.251Z,1.58
2023-03-22T13:32:28.524Z,1.52
2023-03-22T13:35:01.509Z,2.10
2023-03-22T13:37:35.801Z,1.65
2023-03-22T13:40:13.237Z,1.60
2023-03-22T13:42:47.305Z,1.45
2023-03-22T13:45:31.338Z,1.38
2023-03-22T13:48:05.474Z,1.38
2023-03-22T13:50:38.895Z,1.58
2023-03-22T13:53:16.253Z,1.77
2023-03-22T13:55:59.010Z,1.25
2023-03-22T13:58:51.059Z,1.95
2023-03-22T14:01:28.191Z,1.58
2023-03-22T14:04:02.160Z,1.40
2023-03-22T14:06:38.264Z,1.30
2023-03-22T14:09:13.531Z,1.73
2023-03-22T14:11:47.289Z,1.60
2023-03-22T14:14:23.249Z,1.45
2023-03-22T14:17:00.336Z,1.25
2023-03-22T14:19:34.360Z,2.00
